Terminal Aerodrome Forecast
Issued by NWS Twin Cities, MN

Home | Current Version | Previous Version | Graphics & Text | Print | Product List | Glossary On
Versions: 1 2 3 4 5 6 7 8 9 10 11 12 13
629
FTUS43 KMPX 212336
TAFSTC
TAF
KSTC 212336Z 2200/2224 29010KT P6SM VCSH OVC017
     FM220600 26006KT P6SM OVC030
     FM221100 28007KT P6SM BKN035
     FM222000 30010KT P6SM BKN060=

USA.gov is the U.S. government's official web portal to all federal, state and local government web resources and services.